Time;durP1;ratioP1;P1;durP2;ratioP2;P2;SDS_P1;SDS_P2;PMS_P1;PMS_P2;Temp;Humidity;BMP_temperature;BMP_pressure;BME280_temperature;BME280_humidity;BME280_pressure;Samples;Min_cycle;Max_cycle;Signal;HPM_P1;HPM_P2
2022/04/01 00:01:55;;;;;;;13.30;11.93;;;;;;;2.56;85.20;95520.84;6173967;28;20237;-81
2022/04/01 00:04:58;;;;;;;12.27;11.07;;;;;;;2.54;85.61;95525.34;6163989;28;20255;-81
2022/04/01 00:08:02;;;;;;;12.27;11.00;;;;;;;2.53;85.57;95521.91;6179883;28;20265;-82
2022/04/01 00:11:04;;;;;;;12.93;11.67;;;;;;;2.51;85.50;95516.00;6181112;28;20751;-82
2022/04/01 00:14:06;;;;;;;12.67;11.37;;;;;;;2.46;85.51;95502.56;6178133;28;20610;-81
2022/04/01 00:17:08;;;;;;;12.30;11.00;;;;;;;2.40;85.56;95497.84;6179052;28;20232;-82
2022/04/01 00:20:22;;;;;;;13.03;11.73;;;;;;;2.45;85.57;95489.66;6178685;28;20691;-81
2022/04/01 00:23:24;;;;;;;12.77;11.47;;;;;;;2.51;85.49;95491.75;6178572;28;20610;-81
2022/04/01 00:26:27;;;;;;;12.13;10.90;;;;;;;2.51;85.20;95489.16;6178626;28;20768;-81
2022/04/01 00:29:31;;;;;;;12.07;10.87;;;;;;;2.54;85.74;95494.94;6184034;28;20230;-82
2022/04/01 00:32:34;;;;;;;12.30;11.07;;;;;;;2.57;85.42;95496.47;6179044;28;20232;-81
2022/04/01 00:35:36;;;;;;;12.43;11.13;;;;;;;2.59;85.65;95499.75;6178318;28;20233;-81
2022/04/01 00:38:39;;;;;;;12.47;11.27;;;;;;;2.59;85.74;95500.59;6164984;28;20229;-82
2022/04/01 00:41:43;;;;;;;13.83;11.63;;;;;;;2.54;85.19;95499.31;6178233;28;20596;-82
2022/04/01 00:44:45;;;;;;;12.10;10.83;;;;;;;2.54;85.32;95502.75;6169048;28;20296;-82
2022/04/01 00:47:54;;;;;;;12.97;11.67;;;;;;;2.53;85.29;95501.09;6177740;28;20225;-81
2022/04/01 00:50:56;;;;;;;12.90;11.60;;;;;;;2.52;85.73;95494.22;6170291;28;20222;-81
2022/04/01 00:53:59;;;;;;;12.23;11.03;;;;;;;2.54;85.56;95497.53;6178256;28;20221;-81
2022/04/01 00:57:06;;;;;;;14.23;12.73;;;;;;;2.54;85.26;95507.13;6138581;28;20699;-82
2022/04/01 01:00:08;;;;;;;14.00;12.37;;;;;;;2.45;85.10;95494.88;6163114;28;20243;-81
2022/04/01 01:03:13;;;;;;;13.13;11.77;;;;;;;2.44;85.25;95498.44;6178603;28;20234;-81
2022/04/01 01:06:17;;;;;;;13.13;11.83;;;;;;;2.42;84.51;95488.13;6162088;28;20253;-81
2022/04/01 01:09:20;;;;;;;13.67;12.23;;;;;;;2.43;84.91;95501.97;6161681;28;20284;-81
2022/04/01 01:12:25;;;;;;;14.43;12.93;;;;;;;2.45;85.02;95502.69;6179519;28;20229;-81
2022/04/01 01:15:27;;;;;;;14.87;13.27;;;;;;;2.42;85.08;95501.16;6177887;28;20255;-81
2022/04/01 01:18:29;;;;;;;16.80;15.10;;;;;;;2.35;85.24;95502.63;6173905;28;20233;-81
2022/04/01 01:21:32;;;;;;;17.37;15.57;;;;;;;2.34;85.47;95505.34;6178601;28;20233;-82
2022/04/01 01:24:41;;;;;;;17.30;14.13;;;;;;;2.31;85.52;95509.00;6163933;28;20546;-81
2022/04/01 01:27:43;;;;;;;18.00;16.10;;;;;;;2.31;85.18;95502.97;6166026;28;20233;-81
2022/04/01 01:30:46;;;;;;;16.70;14.93;;;;;;;2.29;85.29;95502.31;6182781;28;20233;-82
2022/04/01 01:33:49;;;;;;;15.53;13.93;;;;;;;2.25;85.18;95506.09;6183157;28;20262;-81
2022/04/01 01:36:52;;;;;;;13.90;12.60;;;;;;;2.20;85.03;95494.28;6173857;28;20241;-82
2022/04/01 01:39:55;;;;;;;15.07;12.00;;;;;;;2.24;84.82;95489.66;6208477;28;20261;-81
2022/04/01 01:42:57;;;;;;;14.07;12.67;;;;;;;2.29;85.06;95497.94;6166583;28;20229;-81
2022/04/01 01:45:59;;;;;;;13.37;11.87;;;;;;;2.34;85.04;95502.75;6183066;28;20234;-81
2022/04/01 01:49:03;;;;;;;14.83;13.33;;;;;;;2.35;85.03;95499.19;6158856;28;20714;-82
2022/04/01 01:55:27;;;;;;;15.13;13.50;;;;;;;2.33;84.60;95499.31;6181846;28;20721;-81
2022/04/01 01:58:30;;;;;;;16.43;14.70;;;;;;;2.27;84.86;95494.63;6181971;28;20645;-81
2022/04/01 02:01:32;;;;;;;15.73;14.13;;;;;;;2.23;84.18;95493.22;6165101;28;20754;-81
2022/04/01 02:04:36;;;;;;;16.27;14.57;;;;;;;2.21;84.70;95495.09;6165935;28;20242;-82
2022/04/01 02:07:39;;;;;;;15.87;14.27;;;;;;;2.21;84.20;95487.31;6181452;28;20234;-81
2022/04/01 02:10:41;;;;;;;16.60;14.33;;;;;;;2.22;84.63;95486.34;6183039;28;20237;-81
2022/04/01 02:13:47;;;;;;;16.53;13.93;;;;;;;2.22;84.59;95496.75;6165569;28;20646;-82
2022/04/01 02:16:49;;;;;;;15.03;13.53;;;;;;;2.20;84.72;95493.44;6181354;28;20225;-81
2022/04/01 02:19:52;;;;;;;15.97;14.27;;;;;;;2.19;84.41;95491.84;6182964;28;20245;-81
2022/04/01 02:22:55;;;;;;;14.97;13.47;;;;;;;2.19;84.70;95487.44;6181713;28;20345;-81
2022/04/01 02:25:57;;;;;;;14.70;13.20;;;;;;;2.22;84.39;95492.38;6181691;28;20237;-82
2022/04/01 02:29:03;;;;;;;14.80;13.30;;;;;;;2.26;84.59;95487.75;6181127;28;20375;-81
2022/04/01 02:32:18;;;;;;;14.83;13.23;;;;;;;2.18;84.08;95491.00;6167174;28;20234;-81
2022/04/01 02:35:44;;;;;;;14.07;12.27;;;;;;;2.20;84.30;95499.47;6182460;28;20642;-81
2022/04/01 02:38:46;;;;;;;13.00;11.70;;;;;;;2.23;84.64;95496.63;6188198;28;20234;-82
2022/04/01 02:41:49;;;;;;;12.93;11.63;;;;;;;2.22;84.54;95489.78;6180923;28;20286;-81
2022/04/01 02:44:52;;;;;;;14.53;12.77;;;;;;;2.18;83.73;95484.97;6179949;28;20241;-81
2022/04/01 02:47:54;;;;;;;13.23;11.83;;;;;;;2.20;84.45;95478.66;6196545;28;20233;-81
2022/04/01 02:51:00;;;;;;;13.30;11.90;;;;;;;2.19;84.34;95484.84;6165431;28;20225;-82
2022/04/01 02:54:03;;;;;;;14.70;13.13;;;;;;;2.23;84.55;95483.63;6166821;28;20237;-81
2022/04/01 02:57:06;;;;;;;14.17;12.70;;;;;;;2.26;84.41;95487.75;6157429;28;20206;-81
2022/04/01 03:00:09;;;;;;;15.53;13.87;;;;;;;2.26;84.59;95485.16;6179521;28;20263;-81
2022/04/01 03:03:26;;;;;;;14.90;13.30;;;;;;;2.20;84.51;95478.66;6167888;28;20689;-81
2022/04/01 03:06:29;;;;;;;15.77;14.07;;;;;;;2.18;84.51;95485.81;6165283;28;20613;-81
2022/04/01 03:09:31;;;;;;;15.40;13.80;;;;;;;2.17;84.28;95485.91;6164411;28;20229;-81
2022/04/01 03:13:03;;;;;;;16.37;13.80;;;;;;;2.20;84.58;95480.44;6180993;28;20328;-81
2022/04/01 03:16:29;;;;;;;14.93;13.33;;;;;;;2.21;84.59;95489.91;6170619;28;20245;-81
2022/04/01 03:19:35;;;;;;;15.97;13.70;;;;;;;2.11;84.39;95489.00;6181037;28;20244;-81
2022/04/01 03:22:37;;;;;;;15.17;12.87;;;;;;;2.10;84.51;95487.34;6164055;28;20233;-81
2022/04/01 03:25:39;;;;;;;14.00;12.50;;;;;;;2.09;84.21;95480.53;6179505;28;20323;-81
2022/04/01 03:29:02;;;;;;;16.43;14.50;;;;;;;2.17;84.28;95472.91;6182068;28;20236;-81
2022/04/01 03:32:07;;;;;;;15.87;13.83;;;;;;;2.17;84.56;95485.91;6179792;28;20236;-81
2022/04/01 03:35:17;;;;;;;16.47;14.77;;;;;;;2.16;84.25;95481.66;6180405;28;20229;-82
2022/04/01 03:38:19;;;;;;;14.83;13.23;;;;;;;2.15;84.45;95477.41;6199859;28;20275;-82
2022/04/01 03:41:23;;;;;;;15.47;13.87;;;;;;;2.16;84.55;95477.28;6182190;28;20780;-81
2022/04/01 03:44:28;;;;;;;15.13;13.07;;;;;;;2.18;84.63;95479.78;6145211;28;20574;-81
2022/04/01 03:47:58;;;;;;;12.90;11.47;;;;;;;2.15;84.62;95469.59;6175277;28;20237;-82
2022/04/01 03:51:01;;;;;;;13.40;11.80;;;;;;;2.16;84.67;95484.28;6179493;28;20717;-81
2022/04/01 03:54:06;;;;;;;12.00;10.80;;;;;;;2.09;84.75;95491.75;6170215;28;20229;-81
2022/04/01 03:57:38;;;;;;;13.00;11.63;;;;;;;2.10;84.63;95482.16;6167862;28;20230;-81
2022/04/01 04:01:11;;;;;;;12.80;11.37;;;;;;;2.02;84.21;95480.19;6166132;28;20236;-82
2022/04/01 04:04:15;;;;;;;11.67;10.43;;;;;;;2.03;84.40;95486.22;6162350;28;20270;-81
2022/04/01 04:07:19;;;;;;;13.73;12.30;;;;;;;2.02;84.14;95490.59;6178752;28;20239;-81
2022/04/01 04:10:27;;;;;;;14.27;11.90;;;;;;;2.03;84.62;95486.22;6175776;28;20230;-82
2022/04/01 04:13:38;;;;;;;11.23;10.07;;;;;;;2.03;84.47;95489.63;6172602;28;20245;-81
2022/04/01 04:16:47;;;;;;;11.60;10.40;;;;;;;2.04;84.29;95493.06;6160282;28;20269;-81
2022/04/01 04:20:10;;;;;;;12.20;10.97;;;;;;;2.02;84.38;95492.34;6179340;28;20288;-82
2022/04/01 04:23:50;;;;;;;13.50;11.80;;;;;;;2.01;84.68;95490.72;6165953;28;20612;-82
2022/04/01 04:27:00;;;;;;;12.30;11.00;;;;;;;2.02;84.49;95497.56;6137957;28;20235;-81
2022/04/01 04:30:09;;;;;;;11.60;10.07;;;;;;;2.02;84.60;95503.59;6146046;28;20658;-81
2022/04/01 04:33:30;;;;;;;12.67;11.00;;;;;;;2.03;84.23;95505.25;6154220;28;20226;-81
2022/04/01 04:36:39;;;;;;;11.57;10.30;;;;;;;2.05;84.33;95513.75;6181343;28;20282;-81
2022/04/01 04:39:43;;;;;;;11.50;10.37;;;;;;;2.07;84.44;95516.25;6184588;28;20685;-81
2022/04/01 04:42:48;;;;;;;11.00;9.90;;;;;;;2.09;84.49;95519.56;6162431;28;20231;-81
2022/04/01 04:45:58;;;;;;;12.10;10.53;;;;;;;2.07;84.55;95511.03;6167329;28;20221;-81
2022/04/01 04:49:01;;;;;;;12.07;10.77;;;;;;;2.04;84.13;95513.88;6177987;28;20466;-81
2022/04/01 04:52:05;;;;;;;11.87;10.67;;;;;;;1.97;84.17;95523.97;6178278;28;20324;-81
2022/04/01 04:55:18;;;;;;;12.77;10.63;;;;;;;1.97;83.96;95525.75;6162863;28;20237;-81
2022/04/01 04:58:43;;;;;;;13.37;11.27;;;;;;;1.99;84.27;95529.06;6163326;28;20229;-81
2022/04/01 05:02:07;;;;;;;12.67;11.10;;;;;;;1.97;84.27;95536.97;6165520;28;20262;-81
2022/04/01 05:05:36;;;;;;;13.50;10.50;;;;;;;1.98;84.34;95540.41;6177374;28;20612;-81
2022/04/01 05:09:10;;;;;;;12.90;10.90;;;;;;;1.99;84.27;95540.28;6183831;28;20324;-82
2022/04/01 05:12:25;;;;;;;13.10;10.77;;;;;;;1.97;84.11;95549.16;6146888;28;20861;-81
2022/04/01 05:15:53;;;;;;;11.77;10.27;;;;;;;1.92;83.99;95541.69;6169265;28;20239;-81
2022/04/01 05:19:10;;;;;;;14.17;11.37;;;;;;;1.94;83.87;95538.97;6166717;28;20233;-81
2022/04/01 05:22:18;;;;;;;13.83;11.57;;;;;;;1.91;83.78;95537.44;6166915;28;20488;-81
2022/04/01 05:25:39;;;;;;;11.87;10.67;;;;;;;1.93;84.05;95540.75;6163065;28;20245;-81
2022/04/01 05:29:01;;;;;;;11.80;10.27;;;;;;;1.98;83.87;95540.41;6136407;28;20705;-81
2022/04/01 05:32:06;;;;;;;12.03;10.70;;;;;;;1.99;84.24;95536.84;6158540;28;20237;-81
2022/04/01 05:35:09;;;;;;;14.10;12.50;;;;;;;1.82;83.77;95536.41;6171112;28;20234;-81
2022/04/01 05:38:12;;;;;;;11.77;10.57;;;;;;;1.87;84.02;95537.81;6169997;28;20273;-81
2022/04/01 05:41:19;;;;;;;12.20;10.90;;;;;;;1.90;84.41;95542.78;6150390;28;20259;-81
2022/04/01 05:44:26;;;;;;;12.33;10.60;;;;;;;1.94;84.27;95547.59;6142033;28;20243;-81
2022/04/01 05:47:31;;;;;;;13.60;11.63;;;;;;;1.96;84.17;95547.50;6136684;28;20241;-81
2022/04/01 05:50:36;;;;;;;13.30;11.17;;;;;;;1.95;84.01;95548.44;6179434;28;20505;-81
2022/04/01 05:53:39;;;;;;;11.73;10.47;;;;;;;1.94;84.14;95546.78;6184452;28;20229;-81
2022/04/01 05:56:45;;;;;;;13.03;11.43;;;;;;;1.97;84.09;95549.16;6165820;28;20728;-81
2022/04/01 05:59:47;;;;;;;13.63;10.77;;;;;;;1.93;83.52;95551.16;6181183;28;20724;-81
2022/04/01 06:03:15;;;;;;;13.73;10.80;;;;;;;1.93;84.07;95542.53;6181472;28;20236;-82
2022/04/01 06:06:45;;;;;;;11.73;9.77;;;;;;;2.00;83.95;95549.72;6180869;28;20224;-81
2022/04/01 06:10:05;;;;;;;12.33;9.87;;;;;;;2.06;84.03;95549.22;6165668;28;20237;-81
2022/04/01 06:13:58;;;;;;;12.97;10.40;;;;;;;2.09;83.87;95550.78;6181571;28;20320;-81
2022/04/01 06:17:23;;;;;;;15.73;8.97;;;;;;;2.11;83.46;95551.44;6181124;28;20229;-81
2022/04/01 06:20:27;;;;;;;9.40;8.47;;;;;;;2.12;83.50;95555.69;6165261;28;20245;-81
2022/04/01 06:23:54;;;;;;;9.10;8.13;;;;;;;2.07;83.47;95556.09;6169340;28;20253;-81
2022/04/01 06:27:00;;;;;;;10.63;8.67;;;;;;;2.03;82.79;95554.66;6156510;28;20234;-81
2022/04/01 06:30:10;;;;;;;10.60;8.33;;;;;;;1.99;82.71;95561.09;6176622;28;20237;-81
2022/04/01 06:33:39;;;;;;;10.00;8.60;;;;;;;2.00;82.56;95565.31;6165175;28;20216;-81
2022/04/01 06:37:05;;;;;;;11.90;8.27;;;;;;;1.98;82.75;95569.84;6189041;28;20240;-81
2022/04/01 06:40:14;;;;;;;10.33;8.13;;;;;;;2.03;82.68;95570.28;6188144;28;20595;-81
2022/04/01 06:43:24;;;;;;;9.40;8.30;;;;;;;2.06;82.58;95566.63;6165727;28;20729;-81
2022/04/01 06:46:44;;;;;;;9.80;7.50;;;;;;;2.03;82.40;95566.84;6181383;28;20225;-81
2022/04/01 06:49:49;;;;;;;8.93;7.63;;;;;;;2.11;82.67;95570.47;6166001;28;20352;-81
2022/04/01 06:53:10;;;;;;;7.87;7.00;;;;;;;2.18;82.28;95571.66;6182031;28;20277;-82
2022/04/01 06:56:36;;;;;;;7.80;7.00;;;;;;;2.27;82.56;95580.50;6181583;28;20234;-81
2022/04/01 06:59:38;;;;;;;8.37;7.43;;;;;;;2.24;81.91;95578.13;6164797;28;20229;-81
2022/04/01 07:02:41;;;;;;;8.97;7.00;;;;;;;2.27;82.00;95584.88;6186929;28;20417;-81
2022/04/01 07:05:43;;;;;;;8.30;7.37;;;;;;;2.34;82.26;95588.63;6163958;28;20746;-82
2022/04/01 07:08:49;;;;;;;7.97;6.97;;;;;;;2.33;81.28;95594.78;6164132;28;20279;-81
2022/04/01 07:11:52;;;;;;;7.70;7.00;;;;;;;2.20;81.54;95592.34;6159692;28;20305;-81
2022/04/01 07:14:59;;;;;;;8.33;7.13;;;;;;;2.19;81.67;95590.72;6167783;28;20601;-81
2022/04/01 07:18:02;;;;;;;9.10;7.70;;;;;;;2.29;81.76;95586.41;6165633;28;20225;-81
2022/04/01 07:21:04;;;;;;;9.27;7.33;;;;;;;2.40;81.77;95583.72;6146097;28;20242;-81
2022/04/01 07:24:08;;;;;;;7.13;6.43;;;;;;;2.48;81.69;95583.13;6179273;28;20221;-81
2022/04/01 07:27:11;;;;;;;7.50;6.57;;;;;;;2.53;81.35;95583.56;6179945;28;20336;-81
2022/04/01 07:30:13;;;;;;;6.17;5.57;;;;;;;2.47;80.97;95589.28;6163650;28;20208;-81
2022/04/01 07:33:15;;;;;;;7.63;6.87;;;;;;;2.53;81.31;95596.59;6163249;28;20205;-81
2022/04/01 07:36:20;;;;;;;6.30;5.70;;;;;;;2.58;81.24;95597.88;6164172;28;20207;-81
2022/04/01 07:39:22;;;;;;;6.90;6.23;;;;;;;2.57;80.66;95598.00;6180906;28;20261;-82
2022/04/01 07:42:25;;;;;;;7.03;5.93;;;;;;;2.62;81.04;95600.22;6176055;28;20651;-81
2022/04/01 07:45:29;;;;;;;7.33;6.60;;;;;;;2.70;80.96;95603.81;6160253;28;20229;-81
2022/04/01 07:48:31;;;;;;;7.43;6.37;;;;;;;2.78;80.75;95603.22;6175068;28;20230;-81
2022/04/01 07:51:33;;;;;;;7.40;5.50;;;;;;;2.73;80.23;95600.16;6178464;28;20230;-82
2022/04/01 07:54:36;;;;;;;6.30;5.70;;;;;;;2.69;80.22;95597.00;6191621;28;20233;-81
2022/04/01 07:57:39;;;;;;;6.03;5.40;;;;;;;2.74;80.45;95607.03;6179337;28;20603;-81
2022/04/01 08:00:47;;;;;;;5.50;4.87;;;;;;;2.73;80.37;95605.38;6161932;28;20256;-82
2022/04/01 08:03:49;;;;;;;5.20;4.43;;;;;;;2.69;79.86;95609.19;6139547;28;20619;-81
2022/04/01 08:06:52;;;;;;;5.67;4.90;;;;;;;2.69;80.38;95603.97;6174995;28;20232;-81
2022/04/01 08:09:54;;;;;;;6.70;5.93;;;;;;;2.77;80.49;95610.22;6178730;28;20584;-81
2022/04/01 08:12:58;;;;;;;6.07;5.47;;;;;;;2.78;79.66;95611.03;6162070;28;20248;-82
2022/04/01 08:16:00;;;;;;;5.17;4.67;;;;;;;2.84;79.86;95615.72;6162409;28;20599;-81
2022/04/01 08:19:03;;;;;;;5.60;5.10;;;;;;;2.85;79.26;95620.81;6178365;28;20368;-82
2022/04/01 08:22:06;;;;;;;6.77;5.20;;;;;;;2.93;79.46;95612.34;6177665;28;20665;-81
2022/04/01 08:25:11;;;;;;;5.67;5.17;;;;;;;2.92;79.08;95616.75;6167150;28;20229;-82
2022/04/01 08:28:13;;;;;;;5.27;4.77;;;;;;;2.98;79.04;95612.81;6162132;28;20534;-81
2022/04/01 08:31:17;;;;;;;5.50;5.00;;;;;;;3.08;78.79;95621.53;6178502;28;20240;-81
2022/04/01 08:34:19;;;;;;;5.80;5.30;;;;;;;3.14;78.42;95621.00;6172361;28;20602;-81
2022/04/01 08:37:21;;;;;;;6.00;5.40;;;;;;;3.24;78.04;95618.44;6185420;28;20231;-81
2022/04/01 08:40:29;;;;;;;5.70;5.03;;;;;;;3.36;77.64;95632.22;6190762;28;20582;-82
2022/04/01 08:43:37;;;;;;;5.80;5.20;;;;;;;3.20;77.43;95625.69;6179971;28;20238;-81
2022/04/01 08:46:39;;;;;;;5.90;5.30;;;;;;;3.19;77.54;95633.66;6170625;28;20225;-81
2022/04/01 08:49:41;;;;;;;5.37;4.63;;;;;;;3.03;77.08;95628.88;6151307;28;20609;-82
2022/04/01 08:52:43;;;;;;;5.07;4.57;;;;;;;2.94;77.86;95629.66;6157195;28;20233;-81
2022/04/01 08:55:51;;;;;;;9.67;4.40;;;;;;;2.95;77.99;95639.94;6178370;28;20724;-81
2022/04/01 08:58:54;;;;;;;5.67;4.57;;;;;;;2.99;77.88;95640.53;6153902;28;20231;-82
2022/04/01 09:02:06;;;;;;;5.93;4.37;;;;;;;3.03;77.84;95641.91;6176824;28;20291;-81
2022/04/01 09:05:11;;;;;;;4.83;4.33;;;;;;;3.13;78.50;95647.19;6180072;28;20667;-82
2022/04/01 09:08:15;;;;;;;5.10;4.17;;;;;;;3.20;77.72;95650.91;6169679;28;20257;-81
2022/04/01 09:11:18;;;;;;;5.07;4.57;;;;;;;3.29;77.65;95647.56;6171629;28;20749;-81
2022/04/01 09:14:22;;;;;;;4.93;4.53;;;;;;;3.44;77.50;95648.03;6164017;28;20620;-82
2022/04/01 09:17:44;;;;;;;5.33;4.10;;;;;;;3.61;77.02;95652.66;6176936;28;20236;-81
2022/04/01 09:20:48;;;;;;;4.77;4.37;;;;;;;3.54;75.34;95651.53;6178157;28;20241;-82
2022/04/01 09:23:50;;;;;;;5.13;4.53;;;;;;;3.53;74.78;95655.91;6178487;28;20234;-82
2022/04/01 09:26:55;;;;;;;5.40;4.30;;;;;;;3.44;75.12;95651.47;6177651;28;20720;-81
2022/04/01 09:29:58;;;;;;;5.30;4.23;;;;;;;3.42;74.65;95660.38;6154401;28;20236;-81
2022/04/01 09:33:02;;;;;;;5.17;4.67;;;;;;;3.45;75.74;95657.53;6150390;28;20237;-81
2022/04/01 09:36:06;;;;;;;5.10;4.60;;;;;;;3.47;75.72;95669.47;6156063;28;20706;-81
2022/04/01 09:39:19;;;;;;;4.50;4.10;;;;;;;3.59;75.97;95668.41;6178544;28;20230;-81
2022/04/01 09:42:21;;;;;;;5.30;4.70;;;;;;;3.58;76.00;95660.75;6153784;28;20732;-81
2022/04/01 09:45:28;;;;;;;5.30;4.50;;;;;;;3.49;76.11;95659.75;6139569;28;20626;-82
2022/04/01 09:48:39;;;;;;;5.13;4.67;;;;;;;3.45;75.67;95667.94;6173274;28;20732;-81
2022/04/01 09:51:44;;;;;;;5.07;4.57;;;;;;;3.30;76.52;95675.25;6184321;28;20584;-81
2022/04/01 09:54:51;;;;;;;5.13;4.63;;;;;;;3.37;76.98;95678.19;6185280;28;20601;-81
2022/04/01 09:57:53;;;;;;;5.77;4.53;;;;;;;3.48;76.63;95673.75;6165136;28;20474;-82
2022/04/01 10:00:56;;;;;;;7.40;4.80;;;;;;;3.61;76.32;95678.72;6183218;28;20237;-82
2022/04/01 10:03:59;;;;;;;5.23;4.73;;;;;;;3.58;75.70;95679.84;6184026;28;20705;-81
2022/04/01 10:07:03;;;;;;;4.97;4.53;;;;;;;3.70;75.02;95678.78;6145113;28;20228;-81
2022/04/01 10:10:06;;;;;;;4.90;4.50;;;;;;;3.68;75.15;95680.72;6155610;28;20318;-82
2022/04/01 10:13:24;;;;;;;4.90;4.47;;;;;;;3.71;74.83;95682.19;6165216;28;20732;-81
2022/04/01 10:16:27;;;;;;;5.57;4.27;;;;;;;3.69;74.15;95689.34;6175534;28;20246;-81
2022/04/01 10:19:34;;;;;;;5.90;4.73;;;;;;;3.70;73.87;95684.00;6179833;28;20238;-81
2022/04/01 10:22:36;;;;;;;5.27;4.77;;;;;;;3.85;75.03;95676.66;6181797;28;20690;-81
2022/04/01 10:25:57;;;;;;;5.10;4.17;;;;;;;3.90;74.03;95677.06;6180815;28;20602;-81
2022/04/01 10:29:02;;;;;;;5.37;4.20;;;;;;;3.78;73.51;95678.13;6165501;28;20380;-81
2022/04/01 10:32:26;;;;;;;4.97;4.37;;;;;;;3.73;73.74;95677.69;6180856;28;20582;-81
2022/04/01 10:35:34;;;;;;;4.87;4.47;;;;;;;3.75;73.75;95680.16;6180392;28;20229;-81
2022/04/01 10:38:36;;;;;;;4.90;4.40;;;;;;;3.83;73.55;95680.34;6183034;28;20231;-81
2022/04/01 10:41:39;;;;;;;4.90;4.40;;;;;;;3.91;72.81;95685.72;6164635;28;20248;-81
2022/04/01 10:44:49;;;;;;;4.43;4.03;;;;;;;3.92;73.11;95688.19;6180321;28;20234;-81
2022/04/01 10:51:38;;;;;;;4.93;4.43;;;;;;;3.87;72.25;95700.00;6158079;28;20774;-82
2022/04/01 10:54:44;;;;;;;5.40;4.50;;;;;;;3.92;72.28;95703.03;6172464;28;20263;-81
2022/04/01 10:57:50;;;;;;;5.23;4.73;;;;;;;4.09;72.75;95692.00;6157635;28;20391;-81
2022/04/01 11:00:53;;;;;;;4.90;4.40;;;;;;;4.08;73.00;95699.00;6163005;28;20235;-81
2022/04/01 11:04:21;;;;;;;4.83;4.40;;;;;;;4.19;72.75;95695.47;6181965;28;20218;-81
2022/04/01 11:07:23;;;;;;;6.37;4.73;;;;;;;4.21;71.91;95690.91;6181325;28;20232;-81
2022/04/01 11:10:25;;;;;;;5.43;4.93;;;;;;;4.12;71.54;95699.53;6180096;28;20604;-81
2022/04/01 11:13:28;;;;;;;5.57;5.07;;;;;;;4.38;72.06;95700.72;6159893;28;20244;-81
2022/04/01 11:16:49;;;;;;;5.97;5.33;;;;;;;4.51;71.58;95707.47;6170719;28;20246;-82
2022/04/01 11:20:13;;;;;;;6.00;4.90;;;;;;;4.34;71.87;95712.41;6182210;28;20235;-81
2022/04/01 11:23:15;;;;;;;5.57;4.97;;;;;;;4.08;71.08;95713.81;6182004;28;20228;-81
2022/04/01 11:26:17;;;;;;;6.43;5.17;;;;;;;4.07;72.42;95714.78;6181555;28;20231;-81
2022/04/01 11:29:21;;;;;;;7.27;5.80;;;;;;;4.14;73.15;95723.72;6179413;28;20296;-81
2022/04/01 11:32:23;;;;;;;6.50;5.40;;;;;;;4.16;72.31;95723.59;6155724;28;20613;-81
2022/04/01 11:35:31;;;;;;;6.00;5.40;;;;;;;4.17;72.28;95718.25;6163351;28;20587;-81
2022/04/01 11:38:34;;;;;;;5.07;4.57;;;;;;;4.27;71.65;95724.34;6181084;28;20229;-82
2022/04/01 11:41:47;;;;;;;5.23;4.73;;;;;;;4.43;71.44;95716.81;6163557;28;20267;-81
2022/04/01 11:44:54;;;;;;;4.80;4.40;;;;;;;4.51;70.21;95717.91;6179471;28;20245;-82
2022/04/01 11:47:57;;;;;;;4.97;4.43;;;;;;;4.41;70.37;95715.28;6155405;28;20235;-81
2022/04/01 11:51:04;;;;;;;4.63;4.23;;;;;;;4.13;71.18;95724.69;6177833;28;20254;-81
2022/04/01 11:54:10;;;;;;;7.33;4.80;;;;;;;4.13;71.12;95714.25;6172287;28;20606;-81
2022/04/01 11:57:12;;;;;;;5.30;4.73;;;;;;;4.29;70.73;95717.16;6164600;28;20355;-81
2022/04/01 12:00:16;;;;;;;5.27;4.77;;;;;;;4.34;70.83;95717.63;6180429;28;20589;-81
2022/04/01 12:03:19;;;;;;;4.63;4.23;;;;;;;4.39;70.75;95718.03;6162170;28;20216;-82
2022/04/01 12:09:43;;;;;;;4.93;4.43;;;;;;;4.22;71.09;95723.91;6178647;28;20233;-81
2022/04/01 12:12:58;;;;;;;4.47;4.07;;;;;;;4.19;70.92;95724.19;6163160;28;20822;-81
2022/04/01 12:16:00;;;;;;;4.93;4.53;;;;;;;4.32;71.74;95726.53;6161902;28;20234;-81
2022/04/01 12:19:03;;;;;;;4.40;4.00;;;;;;;4.34;70.93;95722.00;6177982;28;20307;-81
2022/04/01 12:22:06;;;;;;;5.23;4.37;;;;;;;4.34;71.10;95728.06;6154844;28;20802;-82
2022/04/01 12:25:08;;;;;;;5.60;4.53;;;;;;;4.56;70.29;95728.81;6156049;28;20235;-81
2022/04/01 12:28:16;;;;;;;4.73;4.33;;;;;;;4.29;70.53;95726.81;6154488;28;20232;-82
2022/04/01 12:31:21;;;;;;;4.60;4.20;;;;;;;4.34;70.88;95722.00;6170385;28;20532;-82
2022/04/01 12:34:27;;;;;;;4.77;4.20;;;;;;;4.47;71.44;95729.63;6178495;28;20227;-81
2022/04/01 12:37:29;;;;;;;4.33;3.93;;;;;;;4.53;70.99;95722.06;6168706;28;20248;-81
2022/04/01 12:40:44;;;;;;;4.70;4.30;;;;;;;4.45;70.55;95724.50;6162087;28;20631;-81
2022/04/01 12:43:49;;;;;;;4.33;3.93;;;;;;;4.80;70.61;95731.84;6179112;28;20231;-81
2022/04/01 12:46:51;;;;;;;4.17;3.77;;;;;;;4.71;67.55;95730.06;6178113;28;20225;-82
2022/04/01 12:49:54;;;;;;;4.33;3.93;;;;;;;4.51;68.95;95723.16;6178260;28;20242;-81
2022/04/01 12:53:10;;;;;;;4.50;4.10;;;;;;;4.70;69.70;95720.56;6146545;28;20234;-81
2022/04/01 12:56:24;;;;;;;4.93;3.70;;;;;;;4.82;69.73;95730.75;6169818;28;20660;-82
2022/04/01 12:59:27;;;;;;;4.37;3.87;;;;;;;5.03;68.98;95724.59;6171978;28;20797;-81
2022/04/01 13:02:31;;;;;;;4.30;3.87;;;;;;;5.23;68.84;95726.25;6179769;28;20423;-81
2022/04/01 13:05:34;;;;;;;4.43;3.40;;;;;;;5.28;68.43;95723.22;6161272;28;20235;-81
2022/04/01 13:08:36;;;;;;;4.63;3.80;;;;;;;5.34;68.85;95727.88;6179304;28;20251;-81
2022/04/01 13:11:46;;;;;;;4.70;3.60;;;;;;;5.23;68.68;95717.56;6178080;28;20254;-81
2022/04/01 13:15:00;;;;;;;5.70;3.90;;;;;;;5.13;69.13;95717.56;6161556;28;20232;-81
2022/04/01 13:18:03;;;;;;;3.80;3.30;;;;;;;5.14;69.25;95730.50;6176941;28;20731;-81
2022/04/01 13:21:05;;;;;;;4.10;3.70;;;;;;;5.01;68.06;95731.75;6164238;28;20243;-81
2022/04/01 13:24:08;;;;;;;4.53;4.13;;;;;;;4.96;68.93;95741.78;6184535;28;20246;-81
2022/04/01 13:27:12;;;;;;;4.17;3.63;;;;;;;5.07;68.99;95724.19;6182474;28;20232;-81
2022/04/01 13:30:16;;;;;;;4.37;3.87;;;;;;;5.16;68.10;95725.97;6183726;28;20603;-81
2022/04/01 13:33:18;;;;;;;4.03;3.70;;;;;;;5.15;68.28;95732.16;6182627;28;20223;-81
2022/04/01 13:36:20;;;;;;;3.50;3.20;;;;;;;5.16;67.64;95725.16;6186042;28;20209;-81
2022/04/01 13:39:28;;;;;;;3.70;3.40;;;;;;;5.20;68.57;95727.34;6199090;28;20220;-81
2022/04/01 13:42:30;;;;;;;4.53;3.40;;;;;;;5.01;68.30;95731.75;6166486;28;20233;-81
2022/04/01 13:45:33;;;;;;;5.30;3.40;;;;;;;5.01;68.76;95732.56;6167793;28;20239;-82
2022/04/01 13:48:35;;;;;;;4.03;3.63;;;;;;;5.10;68.18;95726.50;6185078;28;20272;-81
2022/04/01 13:51:38;;;;;;;3.77;3.37;;;;;;;5.18;67.96;95737.13;6185544;28;20599;-81
2022/04/01 13:54:40;;;;;;;3.60;3.30;;;;;;;5.09;67.72;95729.28;6187989;28;20240;-81
2022/04/01 13:57:42;;;;;;;4.00;3.60;;;;;;;5.15;67.83;95729.56;6186786;28;20232;-81
2022/04/01 14:00:45;;;;;;;3.50;3.20;;;;;;;5.01;67.43;95727.34;6182510;28;20240;-81
2022/04/01 14:03:47;;;;;;;4.47;3.97;;;;;;;4.93;68.14;95745.50;6183152;28;20228;-81
2022/04/01 14:06:50;;;;;;;4.20;3.80;;;;;;;5.01;68.09;95735.19;6198951;28;20700;-82
2022/04/01 14:09:52;;;;;;;3.53;3.23;;;;;;;5.14;68.35;95737.53;6184050;28;20656;-81
2022/04/01 14:13:02;;;;;;;3.90;3.60;;;;;;;5.09;67.31;95740.53;6183527;28;20283;-81
2022/04/01 14:16:08;;;;;;;4.00;3.60;;;;;;;5.09;67.32;95747.59;6181520;28;20232;-82
2022/04/01 14:19:11;;;;;;;4.00;3.53;;;;;;;5.14;67.66;95751.44;6165674;28;20236;-81
2022/04/01 14:22:13;;;;;;;3.53;3.23;;;;;;;5.14;67.63;95745.38;6159115;28;20230;-82
2022/04/01 14:25:15;;;;;;;4.93;3.83;;;;;;;5.03;67.15;95743.72;6169100;28;20260;-81
2022/04/01 14:28:18;;;;;;;4.40;4.00;;;;;;;4.78;66.31;95750.31;6182093;28;20324;-81
2022/04/01 14:31:20;;;;;;;4.80;4.27;;;;;;;4.50;66.68;95755.44;6164855;28;20229;-82
2022/04/01 14:34:22;;;;;;;4.30;3.90;;;;;;;4.63;67.87;95763.88;6181291;28;20322;-81
2022/04/01 14:37:25;;;;;;;3.87;3.57;;;;;;;4.70;66.86;95752.75;6164254;28;20738;-89
2022/04/01 14:40:27;;;;;;;3.63;3.33;;;;;;;4.78;66.87;95763.38;6140333;28;20659;-80
2022/04/01 14:43:30;;;;;;;3.93;3.53;;;;;;;4.87;66.71;95769.56;6169494;28;20313;-79
2022/04/01 14:46:32;;;;;;;4.00;3.60;;;;;;;4.98;65.95;95769.44;6188702;28;20240;-80
2022/04/01 14:49:36;;;;;;;4.30;3.90;;;;;;;4.83;64.88;95773.41;6197612;28;20229;-80
2022/04/01 14:52:39;;;;;;;3.83;3.40;;;;;;;4.81;65.22;95767.47;6182417;28;20239;-80